sensor_id;sensor_type;location;lat;lon;timestamp;P1;durP1;ratioP1;P2;durP2;ratioP2
64140;SDS011;50436;50.618;7.932;2022-08-30T00:01:11;9.30;;;2.70;;
64140;SDS011;50436;50.618;7.932;2022-08-30T00:03:41;7.00;;;2.67;;
64140;SDS011;50436;50.618;7.932;2022-08-30T00:06:11;7.28;;;2.42;;
64140;SDS011;50436;50.618;7.932;2022-08-30T00:08:39;11.48;;;2.70;;
64140;SDS011;50436;50.618;7.932;2022-08-30T00:11:06;7.68;;;2.65;;
64140;SDS011;50436;50.618;7.932;2022-08-30T00:13:35;9.05;;;2.55;;
64140;SDS011;50436;50.618;7.932;2022-08-30T00:16:01;7.20;;;2.80;;
64140;SDS011;50436;50.618;7.932;2022-08-30T00:18:27;8.05;;;2.70;;
64140;SDS011;50436;50.618;7.932;2022-08-30T00:20:53;11.88;;;3.25;;
64140;SDS011;50436;50.618;7.932;2022-08-30T00:23:20;6.57;;;2.80;;
64140;SDS011;50436;50.618;7.932;2022-08-30T00:25:46;12.32;;;2.67;;
64140;SDS011;50436;50.618;7.932;2022-08-30T00:28:12;10.70;;;2.45;;
64140;SDS011;50436;50.618;7.932;2022-08-30T00:30:38;6.00;;;2.53;;
64140;SDS011;50436;50.618;7.932;2022-08-30T00:33:04;5.30;;;2.33;;
64140;SDS011;50436;50.618;7.932;2022-08-30T00:35:30;10.75;;;2.88;;
64140;SDS011;50436;50.618;7.932;2022-08-30T00:37:55;10.30;;;2.45;;
64140;SDS011;50436;50.618;7.932;2022-08-30T00:40:22;8.90;;;2.50;;
64140;SDS011;50436;50.618;7.932;2022-08-30T00:42:53;12.40;;;3.15;;
64140;SDS011;50436;50.618;7.932;2022-08-30T00:45:21;10.13;;;2.53;;
64140;SDS011;50436;50.618;7.932;2022-08-30T00:47:49;9.10;;;3.00;;
64140;SDS011;50436;50.618;7.932;2022-08-30T00:50:15;9.38;;;2.95;;
64140;SDS011;50436;50.618;7.932;2022-08-30T00:52:44;8.07;;;2.50;;
64140;SDS011;50436;50.618;7.932;2022-08-30T00:55:12;7.55;;;2.47;;
64140;SDS011;50436;50.618;7.932;2022-08-30T00:57:41;7.43;;;2.90;;
64140;SDS011;50436;50.618;7.932;2022-08-30T01:02:37;9.02;;;2.70;;
64140;SDS011;50436;50.618;7.932;2022-08-30T01:05:03;8.30;;;2.60;;
64140;SDS011;50436;50.618;7.932;2022-08-30T01:07:31;9.65;;;2.67;;
64140;SDS011;50436;50.618;7.932;2022-08-30T01:09:59;9.88;;;2.50;;
64140;SDS011;50436;50.618;7.932;2022-08-30T01:12:25;11.65;;;2.78;;
64140;SDS011;50436;50.618;7.932;2022-08-30T01:14:51;8.82;;;2.47;;
64140;SDS011;50436;50.618;7.932;2022-08-30T01:17:17;6.88;;;2.38;;
64140;SDS011;50436;50.618;7.932;2022-08-30T01:19:52;7.15;;;2.30;;
64140;SDS011;50436;50.618;7.932;2022-08-30T01:22:27;10.57;;;2.58;;
64140;SDS011;50436;50.618;7.932;2022-08-30T01:24:59;9.10;;;2.60;;
64140;SDS011;50436;50.618;7.932;2022-08-30T01:27:26;5.57;;;2.55;;
64140;SDS011;50436;50.618;7.932;2022-08-30T01:29:54;8.25;;;2.28;;
64140;SDS011;50436;50.618;7.932;2022-08-30T01:32:23;10.65;;;2.88;;
64140;SDS011;50436;50.618;7.932;2022-08-30T01:34:53;6.97;;;2.33;;
64140;SDS011;50436;50.618;7.932;2022-08-30T01:37:23;9.43;;;2.80;;
64140;SDS011;50436;50.618;7.932;2022-08-30T01:39:51;6.72;;;2.65;;
64140;SDS011;50436;50.618;7.932;2022-08-30T01:42:17;8.68;;;3.00;;
64140;SDS011;50436;50.618;7.932;2022-08-30T01:44:43;5.80;;;2.60;;
64140;SDS011;50436;50.618;7.932;2022-08-30T01:47:09;7.93;;;2.55;;
64140;SDS011;50436;50.618;7.932;2022-08-30T01:49:35;12.45;;;2.80;;
64140;SDS011;50436;50.618;7.932;2022-08-30T01:52:02;5.65;;;2.30;;
64140;SDS011;50436;50.618;7.932;2022-08-30T01:54:29;7.20;;;2.50;;
64140;SDS011;50436;50.618;7.932;2022-08-30T01:56:55;8.68;;;3.03;;
64140;SDS011;50436;50.618;7.932;2022-08-30T01:59:21;10.20;;;2.72;;
64140;SDS011;50436;50.618;7.932;2022-08-30T02:01:49;8.70;;;2.90;;
64140;SDS011;50436;50.618;7.932;2022-08-30T02:04:14;9.07;;;2.83;;
64140;SDS011;50436;50.618;7.932;2022-08-30T02:06:40;8.15;;;2.45;;
64140;SDS011;50436;50.618;7.932;2022-08-30T02:09:06;8.85;;;2.90;;
64140;SDS011;50436;50.618;7.932;2022-08-30T02:11:31;9.57;;;2.55;;
64140;SDS011;50436;50.618;7.932;2022-08-30T02:13:58;9.63;;;3.15;;
64140;SDS011;50436;50.618;7.932;2022-08-30T02:16:23;9.63;;;2.97;;
64140;SDS011;50436;50.618;7.932;2022-08-30T02:18:53;6.47;;;2.70;;
64140;SDS011;50436;50.618;7.932;2022-08-30T02:21:20;8.30;;;2.90;;
64140;SDS011;50436;50.618;7.932;2022-08-30T02:23:45;5.68;;;2.42;;
64140;SDS011;50436;50.618;7.932;2022-08-30T02:26:11;9.05;;;3.28;;
64140;SDS011;50436;50.618;7.932;2022-08-30T02:28:37;11.15;;;2.75;;
64140;SDS011;50436;50.618;7.932;2022-08-30T02:31:03;9.95;;;3.22;;
64140;SDS011;50436;50.618;7.932;2022-08-30T02:33:31;12.50;;;2.50;;
64140;SDS011;50436;50.618;7.932;2022-08-30T02:35:56;9.27;;;3.05;;
64140;SDS011;50436;50.618;7.932;2022-08-30T02:38:22;9.98;;;2.85;;
64140;SDS011;50436;50.618;7.932;2022-08-30T02:40:49;7.90;;;2.75;;
64140;SDS011;50436;50.618;7.932;2022-08-30T02:43:15;11.57;;;2.63;;
64140;SDS011;50436;50.618;7.932;2022-08-30T02:45:41;7.50;;;2.90;;
64140;SDS011;50436;50.618;7.932;2022-08-30T02:48:07;12.82;;;3.50;;
64140;SDS011;50436;50.618;7.932;2022-08-30T02:50:32;11.13;;;3.20;;
64140;SDS011;50436;50.618;7.932;2022-08-30T02:52:58;9.48;;;2.70;;
64140;SDS011;50436;50.618;7.932;2022-08-30T02:55:23;9.68;;;3.47;;
64140;SDS011;50436;50.618;7.932;2022-08-30T02:57:49;12.48;;;3.60;;
64140;SDS011;50436;50.618;7.932;2022-08-30T03:00:15;8.43;;;3.20;;
64140;SDS011;50436;50.618;7.932;2022-08-30T03:02:43;10.15;;;3.33;;
64140;SDS011;50436;50.618;7.932;2022-08-30T03:05:09;7.90;;;3.13;;
64140;SDS011;50436;50.618;7.932;2022-08-30T03:07:37;10.50;;;3.42;;
64140;SDS011;50436;50.618;7.932;2022-08-30T03:10:04;9.27;;;2.95;;
64140;SDS011;50436;50.618;7.932;2022-08-30T03:12:30;12.55;;;3.13;;
64140;SDS011;50436;50.618;7.932;2022-08-30T03:14:57;9.75;;;3.10;;
64140;SDS011;50436;50.618;7.932;2022-08-30T03:17:23;14.77;;;3.63;;
64140;SDS011;50436;50.618;7.932;2022-08-30T03:19:49;13.07;;;3.45;;
64140;SDS011;50436;50.618;7.932;2022-08-30T03:22:14;11.15;;;3.20;;
64140;SDS011;50436;50.618;7.932;2022-08-30T03:24:40;9.50;;;3.17;;
64140;SDS011;50436;50.618;7.932;2022-08-30T03:27:05;8.68;;;2.95;;
64140;SDS011;50436;50.618;7.932;2022-08-30T03:29:32;8.90;;;3.60;;
64140;SDS011;50436;50.618;7.932;2022-08-30T03:32:00;10.57;;;3.40;;
64140;SDS011;50436;50.618;7.932;2022-08-30T03:34:26;12.70;;;3.53;;
64140;SDS011;50436;50.618;7.932;2022-08-30T03:36:52;10.95;;;3.40;;
64140;SDS011;50436;50.618;7.932;2022-08-30T03:39:20;8.88;;;2.95;;
64140;SDS011;50436;50.618;7.932;2022-08-30T03:41:46;16.02;;;3.40;;
64140;SDS011;50436;50.618;7.932;2022-08-30T03:44:15;9.82;;;3.95;;
64140;SDS011;50436;50.618;7.932;2022-08-30T03:46:40;15.02;;;3.83;;
64140;SDS011;50436;50.618;7.932;2022-08-30T03:49:06;10.98;;;3.22;;
64140;SDS011;50436;50.618;7.932;2022-08-30T03:51:32;16.65;;;4.25;;
64140;SDS011;50436;50.618;7.932;2022-08-30T03:53:58;11.57;;;3.28;;
64140;SDS011;50436;50.618;7.932;2022-08-30T03:56:24;14.88;;;3.95;;
64140;SDS011;50436;50.618;7.932;2022-08-30T03:58:50;10.60;;;3.40;;
64140;SDS011;50436;50.618;7.932;2022-08-30T04:01:15;10.48;;;3.45;;
64140;SDS011;50436;50.618;7.932;2022-08-30T04:03:41;8.77;;;3.20;;
64140;SDS011;50436;50.618;7.932;2022-08-30T04:06:07;10.32;;;3.72;;
64140;SDS011;50436;50.618;7.932;2022-08-30T04:08:32;9.10;;;3.45;;
64140;SDS011;50436;50.618;7.932;2022-08-30T04:10:58;9.68;;;3.47;;
64140;SDS011;50436;50.618;7.932;2022-08-30T04:13:25;9.00;;;3.53;;
64140;SDS011;50436;50.618;7.932;2022-08-30T04:15:50;10.85;;;3.13;;
64140;SDS011;50436;50.618;7.932;2022-08-30T04:18:16;11.25;;;3.30;;
64140;SDS011;50436;50.618;7.932;2022-08-30T04:20:41;12.73;;;4.20;;
64140;SDS011;50436;50.618;7.932;2022-08-30T04:23:07;13.57;;;4.30;;
64140;SDS011;50436;50.618;7.932;2022-08-30T04:25:34;8.43;;;3.75;;
64140;SDS011;50436;50.618;7.932;2022-08-30T04:28:03;11.90;;;3.80;;
64140;SDS011;50436;50.618;7.932;2022-08-30T04:30:30;14.20;;;4.30;;
64140;SDS011;50436;50.618;7.932;2022-08-30T04:32:55;14.52;;;4.28;;
64140;SDS011;50436;50.618;7.932;2022-08-30T04:35:22;10.88;;;3.50;;
64140;SDS011;50436;50.618;7.932;2022-08-30T04:37:48;10.73;;;3.80;;
64140;SDS011;50436;50.618;7.932;2022-08-30T04:40:14;18.50;;;4.60;;
64140;SDS011;50436;50.618;7.932;2022-08-30T04:42:40;15.35;;;3.90;;
64140;SDS011;50436;50.618;7.932;2022-08-30T04:45:09;17.63;;;4.10;;
64140;SDS011;50436;50.618;7.932;2022-08-30T04:50:06;10.10;;;3.58;;
64140;SDS011;50436;50.618;7.932;2022-08-30T04:52:32;14.18;;;5.03;;
64140;SDS011;50436;50.618;7.932;2022-08-30T04:54:58;16.45;;;4.50;;
64140;SDS011;50436;50.618;7.932;2022-08-30T04:57:24;10.57;;;4.30;;
64140;SDS011;50436;50.618;7.932;2022-08-30T04:59:50;12.93;;;4.20;;
64140;SDS011;50436;50.618;7.932;2022-08-30T05:02:16;16.23;;;4.43;;
64140;SDS011;50436;50.618;7.932;2022-08-30T05:04:42;13.63;;;4.35;;
64140;SDS011;50436;50.618;7.932;2022-08-30T05:07:28;19.90;;;5.32;;
64140;SDS011;50436;50.618;7.932;2022-08-30T05:09:54;23.23;;;5.20;;
64140;SDS011;50436;50.618;7.932;2022-08-30T05:12:19;20.15;;;4.50;;
64140;SDS011;50436;50.618;7.932;2022-08-30T05:14:45;11.20;;;3.97;;
64140;SDS011;50436;50.618;7.932;2022-08-30T05:17:10;10.07;;;4.55;;
64140;SDS011;50436;50.618;7.932;2022-08-30T05:19:36;11.63;;;3.90;;
64140;SDS011;50436;50.618;7.932;2022-08-30T05:22:02;21.10;;;5.25;;
64140;SDS011;50436;50.618;7.932;2022-08-30T05:24:27;15.90;;;4.25;;
64140;SDS011;50436;50.618;7.932;2022-08-30T05:26:53;14.80;;;3.97;;
64140;SDS011;50436;50.618;7.932;2022-08-30T05:29:18;21.55;;;4.47;;
64140;SDS011;50436;50.618;7.932;2022-08-30T05:31:44;16.88;;;4.10;;
64140;SDS011;50436;50.618;7.932;2022-08-30T05:34:10;17.25;;;4.65;;
64140;SDS011;50436;50.618;7.932;2022-08-30T05:36:36;17.13;;;4.20;;
64140;SDS011;50436;50.618;7.932;2022-08-30T05:39:03;13.48;;;4.38;;
64140;SDS011;50436;50.618;7.932;2022-08-30T05:41:29;14.88;;;4.05;;
64140;SDS011;50436;50.618;7.932;2022-08-30T05:43:55;16.52;;;4.13;;
64140;SDS011;50436;50.618;7.932;2022-08-30T05:46:25;10.20;;;4.30;;
64140;SDS011;50436;50.618;7.932;2022-08-30T05:48:54;9.98;;;4.03;;
64140;SDS011;50436;50.618;7.932;2022-08-30T05:51:21;15.02;;;4.40;;
64140;SDS011;50436;50.618;7.932;2022-08-30T05:53:49;27.95;;;4.60;;
64140;SDS011;50436;50.618;7.932;2022-08-30T05:56:18;12.27;;;4.45;;
64140;SDS011;50436;50.618;7.932;2022-08-30T05:58:45;22.10;;;5.03;;
64140;SDS011;50436;50.618;7.932;2022-08-30T06:01:25;11.20;;;4.60;;
64140;SDS011;50436;50.618;7.932;2022-08-30T06:04:02;14.38;;;4.32;;
64140;SDS011;50436;50.618;7.932;2022-08-30T06:06:30;16.15;;;4.60;;
64140;SDS011;50436;50.618;7.932;2022-08-30T06:08:57;16.23;;;4.65;;
64140;SDS011;50436;50.618;7.932;2022-08-30T06:11:23;14.65;;;4.78;;
64140;SDS011;50436;50.618;7.932;2022-08-30T06:13:50;24.45;;;4.88;;
64140;SDS011;50436;50.618;7.932;2022-08-30T06:16:18;17.65;;;4.93;;
64140;SDS011;50436;50.618;7.932;2022-08-30T06:18:45;15.40;;;4.68;;
64140;SDS011;50436;50.618;7.932;2022-08-30T06:21:18;15.70;;;5.10;;
64140;SDS011;50436;50.618;7.932;2022-08-30T06:23:45;14.48;;;4.75;;
64140;SDS011;50436;50.618;7.932;2022-08-30T06:26:11;17.83;;;4.78;;
64140;SDS011;50436;50.618;7.932;2022-08-30T06:28:37;14.75;;;5.13;;
64140;SDS011;50436;50.618;7.932;2022-08-30T06:31:06;11.02;;;4.65;;
64140;SDS011;50436;50.618;7.932;2022-08-30T06:33:35;11.90;;;4.00;;
64140;SDS011;50436;50.618;7.932;2022-08-30T06:36:05;12.57;;;4.50;;
64140;SDS011;50436;50.618;7.932;2022-08-30T06:38:32;13.63;;;4.43;;
64140;SDS011;50436;50.618;7.932;2022-08-30T06:40:58;13.25;;;4.32;;
64140;SDS011;50436;50.618;7.932;2022-08-30T06:43:24;14.32;;;4.70;;
64140;SDS011;50436;50.618;7.932;2022-08-30T06:45:49;10.35;;;3.90;;
64140;SDS011;50436;50.618;7.932;2022-08-30T06:48:15;11.82;;;4.60;;
64140;SDS011;50436;50.618;7.932;2022-08-30T06:50:41;14.35;;;3.88;;
64140;SDS011;50436;50.618;7.932;2022-08-30T06:53:07;25.67;;;4.57;;
64140;SDS011;50436;50.618;7.932;2022-08-30T06:55:33;12.95;;;4.30;;
64140;SDS011;50436;50.618;7.932;2022-08-30T06:57:59;17.27;;;4.32;;
64140;SDS011;50436;50.618;7.932;2022-08-30T07:00:25;19.23;;;4.70;;
64140;SDS011;50436;50.618;7.932;2022-08-30T07:02:51;13.48;;;4.35;;
64140;SDS011;50436;50.618;7.932;2022-08-30T07:05:17;12.57;;;4.32;;
64140;SDS011;50436;50.618;7.932;2022-08-30T07:07:46;20.73;;;4.57;;
64140;SDS011;50436;50.618;7.932;2022-08-30T07:10:12;14.15;;;4.07;;
64140;SDS011;50436;50.618;7.932;2022-08-30T07:12:39;9.82;;;4.20;;
64140;SDS011;50436;50.618;7.932;2022-08-30T07:15:05;14.93;;;4.22;;
64140;SDS011;50436;50.618;7.932;2022-08-30T07:17:32;12.73;;;4.60;;
64140;SDS011;50436;50.618;7.932;2022-08-30T07:20:17;10.98;;;4.07;;
64140;SDS011;50436;50.618;7.932;2022-08-30T07:22:44;10.80;;;4.25;;
64140;SDS011;50436;50.618;7.932;2022-08-30T07:25:10;14.57;;;4.10;;
64140;SDS011;50436;50.618;7.932;2022-08-30T07:27:36;11.45;;;3.92;;
64140;SDS011;50436;50.618;7.932;2022-08-30T07:30:01;13.27;;;4.10;;
64140;SDS011;50436;50.618;7.932;2022-08-30T07:32:28;12.90;;;4.57;;
64140;SDS011;50436;50.618;7.932;2022-08-30T07:34:54;19.63;;;4.22;;
64140;SDS011;50436;50.618;7.932;2022-08-30T07:37:20;12.65;;;3.88;;
64140;SDS011;50436;50.618;7.932;2022-08-30T07:39:45;15.88;;;4.32;;
64140;SDS011;50436;50.618;7.932;2022-08-30T07:42:11;16.88;;;4.43;;
64140;SDS011;50436;50.618;7.932;2022-08-30T07:44:36;11.02;;;4.03;;
64140;SDS011;50436;50.618;7.932;2022-08-30T07:47:02;14.85;;;4.13;;
64140;SDS011;50436;50.618;7.932;2022-08-30T07:49:28;16.02;;;4.45;;
64140;SDS011;50436;50.618;7.932;2022-08-30T07:51:54;14.13;;;4.45;;
64140;SDS011;50436;50.618;7.932;2022-08-30T07:54:21;18.92;;;3.90;;
64140;SDS011;50436;50.618;7.932;2022-08-30T07:56:46;11.85;;;3.90;;
64140;SDS011;50436;50.618;7.932;2022-08-30T07:59:13;22.30;;;3.95;;
64140;SDS011;50436;50.618;7.932;2022-08-30T08:01:38;24.85;;;4.53;;
64140;SDS011;50436;50.618;7.932;2022-08-30T08:04:04;9.77;;;4.00;;
64140;SDS011;50436;50.618;7.932;2022-08-30T08:06:30;15.38;;;4.00;;
64140;SDS011;50436;50.618;7.932;2022-08-30T08:08:56;17.38;;;3.85;;
64140;SDS011;50436;50.618;7.932;2022-08-30T08:11:26;39.95;;;4.95;;
64140;SDS011;50436;50.618;7.932;2022-08-30T08:13:52;30.65;;;5.03;;
64140;SDS011;50436;50.618;7.932;2022-08-30T08:16:18;24.95;;;4.30;;
64140;SDS011;50436;50.618;7.932;2022-08-30T08:18:44;23.73;;;4.50;;
64140;SDS011;50436;50.618;7.932;2022-08-30T08:21:09;20.48;;;4.80;;
64140;SDS011;50436;50.618;7.932;2022-08-30T08:23:35;11.73;;;4.65;;
64140;SDS011;50436;50.618;7.932;2022-08-30T08:26:01;16.42;;;5.10;;
64140;SDS011;50436;50.618;7.932;2022-08-30T08:28:27;17.05;;;3.85;;
64140;SDS011;50436;50.618;7.932;2022-08-30T08:30:53;11.35;;;3.88;;
64140;SDS011;50436;50.618;7.932;2022-08-30T08:33:19;16.67;;;4.07;;
64140;SDS011;50436;50.618;7.932;2022-08-30T08:35:44;14.65;;;3.88;;
64140;SDS011;50436;50.618;7.932;2022-08-30T08:38:10;17.88;;;3.97;;
64140;SDS011;50436;50.618;7.932;2022-08-30T08:40:59;13.90;;;4.10;;
64140;SDS011;50436;50.618;7.932;2022-08-30T08:43:27;15.98;;;3.70;;
64140;SDS011;50436;50.618;7.932;2022-08-30T08:49:07;13.88;;;4.07;;
64140;SDS011;50436;50.618;7.932;2022-08-30T08:51:34;13.75;;;3.40;;
64140;SDS011;50436;50.618;7.932;2022-08-30T08:56:54;13.70;;;4.20;;
64140;SDS011;50436;50.618;7.932;2022-08-30T08:59:20;18.88;;;4.57;;
64140;SDS011;50436;50.618;7.932;2022-08-30T09:01:46;32.55;;;4.75;;
64140;SDS011;50436;50.618;7.932;2022-08-30T09:04:19;9.95;;;3.50;;
64140;SDS011;50436;50.618;7.932;2022-08-30T09:09:30;16.85;;;4.00;;
64140;SDS011;50436;50.618;7.932;2022-08-30T09:11:59;14.50;;;3.53;;
64140;SDS011;50436;50.618;7.932;2022-08-30T09:14:26;16.30;;;4.45;;
64140;SDS011;50436;50.618;7.932;2022-08-30T09:17:00;16.90;;;4.50;;
64140;SDS011;50436;50.618;7.932;2022-08-30T09:21:57;10.35;;;3.55;;
64140;SDS011;50436;50.618;7.932;2022-08-30T09:24:24;15.90;;;3.90;;
64140;SDS011;50436;50.618;7.932;2022-08-30T09:26:50;12.00;;;3.20;;
64140;SDS011;50436;50.618;7.932;2022-08-30T09:29:16;14.82;;;4.00;;
64140;SDS011;50436;50.618;7.932;2022-08-30T09:31:52;12.48;;;3.33;;
64140;SDS011;50436;50.618;7.932;2022-08-30T09:34:19;10.18;;;3.65;;
64140;SDS011;50436;50.618;7.932;2022-08-30T09:36:47;10.13;;;3.35;;
64140;SDS011;50436;50.618;7.932;2022-08-30T09:39:18;9.13;;;3.40;;
64140;SDS011;50436;50.618;7.932;2022-08-30T09:42:25;9.98;;;2.95;;
64140;SDS011;50436;50.618;7.932;2022-08-30T09:44:53;14.65;;;3.75;;
64140;SDS011;50436;50.618;7.932;2022-08-30T09:47:35;12.18;;;3.28;;
64140;SDS011;50436;50.618;7.932;2022-08-30T09:58:39;14.27;;;4.25;;
64140;SDS011;50436;50.618;7.932;2022-08-30T10:02:05;14.45;;;3.42;;
64140;SDS011;50436;50.618;7.932;2022-08-30T10:04:18;9.18;;;3.25;;
64140;SDS011;50436;50.618;7.932;2022-08-30T10:06:58;7.55;;;3.40;;
64140;SDS011;50436;50.618;7.932;2022-08-30T10:12:24;11.02;;;3.85;;
64140;SDS011;50436;50.618;7.932;2022-08-30T10:15:01;11.68;;;3.70;;
64140;SDS011;50436;50.618;7.932;2022-08-30T10:20:36;12.23;;;3.50;;
64140;SDS011;50436;50.618;7.932;2022-08-30T10:23:34;12.00;;;3.63;;
64140;SDS011;50436;50.618;7.932;2022-08-30T10:29:13;12.48;;;3.72;;
64140;SDS011;50436;50.618;7.932;2022-08-30T10:31:51;12.52;;;4.00;;
64140;SDS011;50436;50.618;7.932;2022-08-30T10:37:31;9.85;;;4.45;;
64140;SDS011;50436;50.618;7.932;2022-08-30T10:40:05;9.63;;;3.72;;
64140;SDS011;50436;50.618;7.932;2022-08-30T10:42:59;18.08;;;3.88;;
64140;SDS011;50436;50.618;7.932;2022-08-30T10:45:33;9.48;;;3.97;;
64140;SDS011;50436;50.618;7.932;2022-08-30T10:50:49;16.27;;;4.30;;
64140;SDS011;50436;50.618;7.932;2022-08-30T10:53:20;8.98;;;3.72;;
64140;SDS011;50436;50.618;7.932;2022-08-30T10:55:56;9.68;;;4.22;;
64140;SDS011;50436;50.618;7.932;2022-08-30T10:58:27;8.95;;;4.07;;
64140;SDS011;50436;50.618;7.932;2022-08-30T11:00:59;20.42;;;4.28;;
64140;SDS011;50436;50.618;7.932;2022-08-30T11:14:49;8.15;;;3.40;;
64140;SDS011;50436;50.618;7.932;2022-08-30T11:19:57;9.88;;;3.67;;
64140;SDS011;50436;50.618;7.932;2022-08-30T11:22:36;9.18;;;3.63;;
64140;SDS011;50436;50.618;7.932;2022-08-30T11:27:44;7.40;;;3.55;;
64140;SDS011;50436;50.618;7.932;2022-08-30T11:33:02;17.83;;;3.95;;
64140;SDS011;50436;50.618;7.932;2022-08-30T11:38:16;11.38;;;4.03;;
64140;SDS011;50436;50.618;7.932;2022-08-30T11:40:44;12.68;;;3.92;;
64140;SDS011;50436;50.618;7.932;2022-08-30T11:48:59;11.20;;;4.25;;
64140;SDS011;50436;50.618;7.932;2022-08-30T12:00:40;11.40;;;3.58;;
64140;SDS011;50436;50.618;7.932;2022-08-30T12:11:03;23.38;;;5.05;;
64140;SDS011;50436;50.618;7.932;2022-08-30T12:13:53;19.27;;;4.85;;
64140;SDS011;50436;50.618;7.932;2022-08-30T12:16:21;14.20;;;4.22;;
64140;SDS011;50436;50.618;7.932;2022-08-30T12:18:51;8.02;;;4.05;;
64140;SDS011;50436;50.618;7.932;2022-08-30T12:28:50;11.90;;;4.57;;
64140;SDS011;50436;50.618;7.932;2022-08-30T12:31:19;18.25;;;4.30;;
64140;SDS011;50436;50.618;7.932;2022-08-30T12:33:49;10.75;;;4.10;;
64140;SDS011;50436;50.618;7.932;2022-08-30T12:39:20;11.13;;;4.60;;
64140;SDS011;50436;50.618;7.932;2022-08-30T12:41:48;19.58;;;4.78;;
64140;SDS011;50436;50.618;7.932;2022-08-30T12:44:15;8.60;;;3.63;;
64140;SDS011;50436;50.618;7.932;2022-08-30T12:46:46;10.15;;;4.60;;
64140;SDS011;50436;50.618;7.932;2022-08-30T12:49:16;8.15;;;3.90;;
64140;SDS011;50436;50.618;7.932;2022-08-30T12:51:44;13.80;;;4.20;;
64140;SDS011;50436;50.618;7.932;2022-08-30T12:54:14;7.20;;;3.75;;
64140;SDS011;50436;50.618;7.932;2022-08-30T13:02:20;12.07;;;4.82;;
64140;SDS011;50436;50.618;7.932;2022-08-30T13:04:48;12.63;;;4.72;;
64140;SDS011;50436;50.618;7.932;2022-08-30T13:07:25;9.25;;;4.32;;
64140;SDS011;50436;50.618;7.932;2022-08-30T13:10:15;7.65;;;4.10;;
64140;SDS011;50436;50.618;7.932;2022-08-30T13:12:58;14.45;;;4.72;;
64140;SDS011;50436;50.618;7.932;2022-08-30T13:15:28;12.20;;;5.05;;
64140;SDS011;50436;50.618;7.932;2022-08-30T13:18:16;19.33;;;5.13;;
64140;SDS011;50436;50.618;7.932;2022-08-30T13:21:45;13.27;;;4.93;;
64140;SDS011;50436;50.618;7.932;2022-08-30T13:23:37;12.73;;;4.53;;
64140;SDS011;50436;50.618;7.932;2022-08-30T13:26:06;13.50;;;5.13;;
64140;SDS011;50436;50.618;7.932;2022-08-30T13:28:45;12.90;;;4.63;;
64140;SDS011;50436;50.618;7.932;2022-08-30T13:31:15;16.20;;;4.97;;
64140;SDS011;50436;50.618;7.932;2022-08-30T13:33:41;10.13;;;4.38;;
64140;SDS011;50436;50.618;7.932;2022-08-30T13:36:10;12.20;;;4.55;;
64140;SDS011;50436;50.618;7.932;2022-08-30T13:38:36;10.43;;;4.28;;
64140;SDS011;50436;50.618;7.932;2022-08-30T13:41:03;15.88;;;5.10;;
64140;SDS011;50436;50.618;7.932;2022-08-30T13:43:28;13.00;;;4.90;;
64140;SDS011;50436;50.618;7.932;2022-08-30T13:45:54;18.98;;;4.80;;
64140;SDS011;50436;50.618;7.932;2022-08-30T13:48:21;13.23;;;4.90;;
64140;SDS011;50436;50.618;7.932;2022-08-30T13:50:47;8.82;;;4.82;;
64140;SDS011;50436;50.618;7.932;2022-08-30T13:53:12;13.55;;;4.57;;
64140;SDS011;50436;50.618;7.932;2022-08-30T13:55:38;12.93;;;4.70;;
64140;SDS011;50436;50.618;7.932;2022-08-30T13:58:05;11.52;;;4.20;;
64140;SDS011;50436;50.618;7.932;2022-08-30T14:00:31;13.35;;;4.55;;
64140;SDS011;50436;50.618;7.932;2022-08-30T14:02:58;11.98;;;4.63;;
64140;SDS011;50436;50.618;7.932;2022-08-30T14:05:24;16.02;;;4.90;;
64140;SDS011;50436;50.618;7.932;2022-08-30T14:07:54;11.60;;;4.70;;
64140;SDS011;50436;50.618;7.932;2022-08-30T14:10:20;14.02;;;4.90;;
64140;SDS011;50436;50.618;7.932;2022-08-30T14:12:49;12.07;;;4.57;;
64140;SDS011;50436;50.618;7.932;2022-08-30T14:15:15;14.13;;;4.47;;
64140;SDS011;50436;50.618;7.932;2022-08-30T14:17:40;12.75;;;4.32;;
64140;SDS011;50436;50.618;7.932;2022-08-30T14:20:06;14.77;;;4.45;;
64140;SDS011;50436;50.618;7.932;2022-08-30T14:22:32;10.02;;;4.50;;
64140;SDS011;50436;50.618;7.932;2022-08-30T14:24:57;10.85;;;4.68;;
64140;SDS011;50436;50.618;7.932;2022-08-30T14:27:26;13.50;;;4.25;;
64140;SDS011;50436;50.618;7.932;2022-08-30T14:29:54;11.43;;;4.32;;
64140;SDS011;50436;50.618;7.932;2022-08-30T14:32:20;11.02;;;4.50;;
64140;SDS011;50436;50.618;7.932;2022-08-30T14:34:49;12.75;;;4.57;;
64140;SDS011;50436;50.618;7.932;2022-08-30T14:37:15;12.35;;;4.18;;
64140;SDS011;50436;50.618;7.932;2022-08-30T14:39:40;11.25;;;4.47;;
64140;SDS011;50436;50.618;7.932;2022-08-30T14:42:06;12.20;;;4.45;;
64140;SDS011;50436;50.618;7.932;2022-08-30T14:44:33;12.13;;;4.68;;
64140;SDS011;50436;50.618;7.932;2022-08-30T14:46:59;19.20;;;4.45;;
64140;SDS011;50436;50.618;7.932;2022-08-30T14:49:25;15.73;;;4.22;;
64140;SDS011;50436;50.618;7.932;2022-08-30T14:51:51;12.55;;;4.88;;
64140;SDS011;50436;50.618;7.932;2022-08-30T14:54:19;12.20;;;4.82;;
64140;SDS011;50436;50.618;7.932;2022-08-30T14:56:46;17.30;;;4.35;;
64140;SDS011;50436;50.618;7.932;2022-08-30T14:59:22;10.61;;;4.53;;
64140;SDS011;50436;50.618;7.932;2022-08-30T15:01:49;19.55;;;4.75;;
64140;SDS011;50436;50.618;7.932;2022-08-30T15:04:15;13.80;;;4.80;;
64140;SDS011;50436;50.618;7.932;2022-08-30T15:06:42;12.57;;;4.50;;
64140;SDS011;50436;50.618;7.932;2022-08-30T15:09:10;12.68;;;4.88;;
64140;SDS011;50436;50.618;7.932;2022-08-30T15:11:38;10.27;;;4.32;;
64140;SDS011;50436;50.618;7.932;2022-08-30T15:14:04;12.07;;;5.18;;
64140;SDS011;50436;50.618;7.932;2022-08-30T15:16:32;15.13;;;4.93;;
64140;SDS011;50436;50.618;7.932;2022-08-30T15:18:59;12.20;;;4.75;;
64140;SDS011;50436;50.618;7.932;2022-08-30T15:21:35;12.63;;;5.13;;
64140;SDS011;50436;50.618;7.932;2022-08-30T15:24:06;12.73;;;4.57;;
64140;SDS011;50436;50.618;7.932;2022-08-30T15:26:33;10.82;;;4.85;;
64140;SDS011;50436;50.618;7.932;2022-08-30T15:29:00;13.23;;;4.70;;
64140;SDS011;50436;50.618;7.932;2022-08-30T15:31:28;12.45;;;4.70;;
64140;SDS011;50436;50.618;7.932;2022-08-30T15:33:55;11.05;;;4.40;;
64140;SDS011;50436;50.618;7.932;2022-08-30T15:36:22;16.90;;;4.72;;
64140;SDS011;50436;50.618;7.932;2022-08-30T15:38:48;13.85;;;4.70;;
64140;SDS011;50436;50.618;7.932;2022-08-30T15:41:15;10.55;;;4.53;;
64140;SDS011;50436;50.618;7.932;2022-08-30T15:43:41;12.20;;;4.53;;
64140;SDS011;50436;50.618;7.932;2022-08-30T15:46:20;11.70;;;4.90;;
64140;SDS011;50436;50.618;7.932;2022-08-30T15:48:48;11.90;;;4.88;;
64140;SDS011;50436;50.618;7.932;2022-08-30T15:51:16;18.30;;;4.55;;
64140;SDS011;50436;50.618;7.932;2022-08-30T15:53:43;10.95;;;4.50;;
64140;SDS011;50436;50.618;7.932;2022-08-30T15:56:10;13.57;;;4.57;;
64140;SDS011;50436;50.618;7.932;2022-08-30T15:58:38;12.55;;;4.80;;
64140;SDS011;50436;50.618;7.932;2022-08-30T16:01:04;12.05;;;4.70;;
64140;SDS011;50436;50.618;7.932;2022-08-30T16:03:31;11.52;;;4.80;;
64140;SDS011;50436;50.618;7.932;2022-08-30T16:05:57;9.60;;;4.93;;
64140;SDS011;50436;50.618;7.932;2022-08-30T16:08:24;10.88;;;4.40;;
64140;SDS011;50436;50.618;7.932;2022-08-30T16:10:50;14.30;;;4.38;;
64140;SDS011;50436;50.618;7.932;2022-08-30T16:13:15;12.35;;;4.95;;
64140;SDS011;50436;50.618;7.932;2022-08-30T16:15:41;15.00;;;5.75;;
64140;SDS011;50436;50.618;7.932;2022-08-30T16:18:11;15.68;;;4.90;;
64140;SDS011;50436;50.618;7.932;2022-08-30T16:20:39;14.88;;;4.90;;
64140;SDS011;50436;50.618;7.932;2022-08-30T16:23:05;11.35;;;4.63;;
64140;SDS011;50436;50.618;7.932;2022-08-30T16:25:31;11.43;;;4.45;;